sensor_id;sensor_type;location;lat;lon;timestamp;P1;durP1;ratioP1;P2;durP2;ratioP2
67442;SDS011;54311;51.726;5.154;2023-06-04T00:02:02;4.05;;;3.63;;
67442;SDS011;54311;51.726;5.154;2023-06-04T00:04:27;7.28;;;3.97;;
67442;SDS011;54311;51.726;5.154;2023-06-04T00:06:53;7.50;;;3.75;;
67442;SDS011;54311;51.726;5.154;2023-06-04T00:09:19;5.63;;;3.40;;
67442;SDS011;54311;51.726;5.154;2023-06-04T00:11:44;3.72;;;3.35;;
67442;SDS011;54311;51.726;5.154;2023-06-04T00:14:10;5.97;;;3.42;;
67442;SDS011;54311;51.726;5.154;2023-06-04T00:16:36;4.10;;;3.78;;
67442;SDS011;54311;51.726;5.154;2023-06-04T00:19:01;4.90;;;4.00;;
67442;SDS011;54311;51.726;5.154;2023-06-04T00:21:27;5.45;;;3.50;;
67442;SDS011;54311;51.726;5.154;2023-06-04T00:23:53;6.55;;;3.80;;
67442;SDS011;54311;51.726;5.154;2023-06-04T00:26:18;4.13;;;3.60;;
67442;SDS011;54311;51.726;5.154;2023-06-04T00:28:44;5.25;;;3.60;;
67442;SDS011;54311;51.726;5.154;2023-06-04T00:31:09;8.40;;;3.47;;
67442;SDS011;54311;51.726;5.154;2023-06-04T00:33:35;3.90;;;3.40;;
67442;SDS011;54311;51.726;5.154;2023-06-04T00:36:01;6.22;;;3.40;;
67442;SDS011;54311;51.726;5.154;2023-06-04T00:38:26;4.43;;;3.70;;
67442;SDS011;54311;51.726;5.154;2023-06-04T00:40:52;4.72;;;3.35;;
67442;SDS011;54311;51.726;5.154;2023-06-04T00:43:17;3.67;;;3.38;;
67442;SDS011;54311;51.726;5.154;2023-06-04T00:45:44;5.15;;;3.85;;
67442;SDS011;54311;51.726;5.154;2023-06-04T00:48:09;8.80;;;3.70;;
67442;SDS011;54311;51.726;5.154;2023-06-04T00:50:35;12.43;;;3.88;;
67442;SDS011;54311;51.726;5.154;2023-06-04T00:53:00;8.50;;;4.20;;
67442;SDS011;54311;51.726;5.154;2023-06-04T00:55:26;6.65;;;3.65;;
67442;SDS011;54311;51.726;5.154;2023-06-04T00:57:51;6.10;;;4.10;;
67442;SDS011;54311;51.726;5.154;2023-06-04T01:00:16;4.25;;;3.38;;
67442;SDS011;54311;51.726;5.154;2023-06-04T01:02:43;4.20;;;3.90;;
67442;SDS011;54311;51.726;5.154;2023-06-04T01:05:21;6.15;;;3.80;;
67442;SDS011;54311;51.726;5.154;2023-06-04T01:08:13;4.95;;;4.18;;
67442;SDS011;54311;51.726;5.154;2023-06-04T01:10:50;4.55;;;3.90;;
67442;SDS011;54311;51.726;5.154;2023-06-04T01:13:18;5.95;;;4.10;;
67442;SDS011;54311;51.726;5.154;2023-06-04T01:15:44;6.95;;;4.10;;
67442;SDS011;54311;51.726;5.154;2023-06-04T01:18:10;5.85;;;4.20;;
67442;SDS011;54311;51.726;5.154;2023-06-04T01:23:10;6.47;;;3.88;;
67442;SDS011;54311;51.726;5.154;2023-06-04T01:26:02;8.68;;;3.75;;
67442;SDS011;54311;51.726;5.154;2023-06-04T01:28:30;3.85;;;3.60;;
67442;SDS011;54311;51.726;5.154;2023-06-04T01:30:56;4.55;;;4.10;;
67442;SDS011;54311;51.726;5.154;2023-06-04T01:33:22;5.53;;;3.92;;
67442;SDS011;54311;51.726;5.154;2023-06-04T01:35:48;5.35;;;3.55;;
67442;SDS011;54311;51.726;5.154;2023-06-04T01:38:14;4.65;;;4.00;;
67442;SDS011;54311;51.726;5.154;2023-06-04T01:40:39;6.20;;;4.22;;
67442;SDS011;54311;51.726;5.154;2023-06-04T01:43:05;4.22;;;3.97;;
67442;SDS011;54311;51.726;5.154;2023-06-04T01:45:31;5.10;;;4.20;;
67442;SDS011;54311;51.726;5.154;2023-06-04T01:47:56;4.57;;;3.55;;
67442;SDS011;54311;51.726;5.154;2023-06-04T01:50:22;4.70;;;3.85;;
67442;SDS011;54311;51.726;5.154;2023-06-04T01:52:48;4.45;;;4.00;;
67442;SDS011;54311;51.726;5.154;2023-06-04T01:55:14;8.98;;;4.13;;
67442;SDS011;54311;51.726;5.154;2023-06-04T01:57:40;6.40;;;3.92;;
67442;SDS011;54311;51.726;5.154;2023-06-04T02:00:07;4.88;;;4.30;;
67442;SDS011;54311;51.726;5.154;2023-06-04T02:02:34;4.18;;;3.88;;
67442;SDS011;54311;51.726;5.154;2023-06-04T02:05:03;4.28;;;3.88;;
67442;SDS011;54311;51.726;5.154;2023-06-04T02:07:32;6.60;;;3.85;;
67442;SDS011;54311;51.726;5.154;2023-06-04T02:09:59;5.55;;;4.25;;
67442;SDS011;54311;51.726;5.154;2023-06-04T02:12:25;4.18;;;3.88;;
67442;SDS011;54311;51.726;5.154;2023-06-04T02:14:50;4.75;;;3.88;;
67442;SDS011;54311;51.726;5.154;2023-06-04T02:17:15;5.53;;;3.95;;
67442;SDS011;54311;51.726;5.154;2023-06-04T02:19:42;4.07;;;3.80;;
67442;SDS011;54311;51.726;5.154;2023-06-04T02:22:10;4.38;;;4.07;;
67442;SDS011;54311;51.726;5.154;2023-06-04T02:24:36;5.63;;;4.63;;
67442;SDS011;54311;51.726;5.154;2023-06-04T02:27:03;4.50;;;4.10;;
67442;SDS011;54311;51.726;5.154;2023-06-04T02:29:29;4.53;;;4.20;;
67442;SDS011;54311;51.726;5.154;2023-06-04T02:31:54;5.20;;;4.03;;
67442;SDS011;54311;51.726;5.154;2023-06-04T02:34:19;4.10;;;3.80;;
67442;SDS011;54311;51.726;5.154;2023-06-04T02:36:45;3.88;;;3.67;;
67442;SDS011;54311;51.726;5.154;2023-06-04T02:39:13;4.07;;;3.78;;
67442;SDS011;54311;51.726;5.154;2023-06-04T02:41:39;4.20;;;3.90;;
67442;SDS011;54311;51.726;5.154;2023-06-04T02:44:04;3.83;;;3.63;;
67442;SDS011;54311;51.726;5.154;2023-06-04T02:46:29;4.45;;;3.92;;
67442;SDS011;54311;51.726;5.154;2023-06-04T02:48:55;4.18;;;3.97;;
67442;SDS011;54311;51.726;5.154;2023-06-04T02:51:20;5.70;;;4.38;;
67442;SDS011;54311;51.726;5.154;2023-06-04T02:53:45;6.32;;;3.97;;
67442;SDS011;54311;51.726;5.154;2023-06-04T02:56:11;4.72;;;4.50;;
67442;SDS011;54311;51.726;5.154;2023-06-04T02:58:37;4.43;;;4.10;;
67442;SDS011;54311;51.726;5.154;2023-06-04T03:01:04;4.20;;;3.90;;
67442;SDS011;54311;51.726;5.154;2023-06-04T03:03:30;4.70;;;4.30;;
67442;SDS011;54311;51.726;5.154;2023-06-04T03:05:56;5.00;;;4.63;;
67442;SDS011;54311;51.726;5.154;2023-06-04T03:08:21;3.80;;;3.60;;
67442;SDS011;54311;51.726;5.154;2023-06-04T03:10:47;4.22;;;3.80;;
67442;SDS011;54311;51.726;5.154;2023-06-04T03:13:12;3.95;;;3.75;;
67442;SDS011;54311;51.726;5.154;2023-06-04T03:15:37;4.30;;;4.00;;
67442;SDS011;54311;51.726;5.154;2023-06-04T03:18:04;5.05;;;4.13;;
67442;SDS011;54311;51.726;5.154;2023-06-04T03:20:30;5.18;;;4.20;;
67442;SDS011;54311;51.726;5.154;2023-06-04T03:22:55;4.68;;;4.30;;
67442;SDS011;54311;51.726;5.154;2023-06-04T03:25:20;4.53;;;4.32;;
67442;SDS011;54311;51.726;5.154;2023-06-04T03:27:46;4.60;;;4.20;;
67442;SDS011;54311;51.726;5.154;2023-06-04T03:30:11;5.00;;;4.50;;
67442;SDS011;54311;51.726;5.154;2023-06-04T03:32:37;4.75;;;4.47;;
67442;SDS011;54311;51.726;5.154;2023-06-04T03:35:02;8.68;;;4.45;;
67442;SDS011;54311;51.726;5.154;2023-06-04T03:37:28;4.70;;;4.40;;
67442;SDS011;54311;51.726;5.154;2023-06-04T03:39:53;4.15;;;3.95;;
67442;SDS011;54311;51.726;5.154;2023-06-04T03:42:18;4.75;;;4.32;;
67442;SDS011;54311;51.726;5.154;2023-06-04T03:44:44;6.75;;;4.45;;
67442;SDS011;54311;51.726;5.154;2023-06-04T03:47:11;7.53;;;4.18;;
67442;SDS011;54311;51.726;5.154;2023-06-04T03:49:36;4.90;;;4.60;;
67442;SDS011;54311;51.726;5.154;2023-06-04T03:52:01;4.80;;;4.55;;
67442;SDS011;54311;51.726;5.154;2023-06-04T03:54:27;10.20;;;4.70;;
67442;SDS011;54311;51.726;5.154;2023-06-04T03:56:52;6.55;;;4.18;;
67442;SDS011;54311;51.726;5.154;2023-06-04T03:59:17;4.57;;;4.28;;
67442;SDS011;54311;51.726;5.154;2023-06-04T04:01:43;4.43;;;4.07;;
67442;SDS011;54311;51.726;5.154;2023-06-04T04:04:08;7.05;;;4.60;;
67442;SDS011;54311;51.726;5.154;2023-06-04T04:06:34;6.78;;;4.03;;
67442;SDS011;54311;51.726;5.154;2023-06-04T04:09:00;5.60;;;4.45;;
67442;SDS011;54311;51.726;5.154;2023-06-04T04:11:28;4.20;;;4.00;;
67442;SDS011;54311;51.726;5.154;2023-06-04T04:13:53;5.43;;;4.50;;
67442;SDS011;54311;51.726;5.154;2023-06-04T04:16:19;4.28;;;3.97;;
67442;SDS011;54311;51.726;5.154;2023-06-04T04:18:44;4.90;;;4.47;;
67442;SDS011;54311;51.726;5.154;2023-06-04T04:21:09;7.72;;;4.18;;
67442;SDS011;54311;51.726;5.154;2023-06-04T04:23:35;4.78;;;4.25;;
67442;SDS011;54311;51.726;5.154;2023-06-04T04:26:03;4.20;;;3.80;;
67442;SDS011;54311;51.726;5.154;2023-06-04T04:28:28;5.00;;;3.95;;
67442;SDS011;54311;51.726;5.154;2023-06-04T04:30:56;4.53;;;4.10;;
67442;SDS011;54311;51.726;5.154;2023-06-04T04:33:22;3.80;;;3.60;;
67442;SDS011;54311;51.726;5.154;2023-06-04T04:35:49;6.38;;;4.00;;
67442;SDS011;54311;51.726;5.154;2023-06-04T04:38:15;6.50;;;3.83;;
67442;SDS011;54311;51.726;5.154;2023-06-04T04:40:43;4.28;;;3.90;;
67442;SDS011;54311;51.726;5.154;2023-06-04T04:43:08;6.40;;;3.78;;
67442;SDS011;54311;51.726;5.154;2023-06-04T04:45:33;4.40;;;4.10;;
67442;SDS011;54311;51.726;5.154;2023-06-04T04:47:59;4.45;;;4.13;;
67442;SDS011;54311;51.726;5.154;2023-06-04T04:50:24;5.57;;;3.72;;
67442;SDS011;54311;51.726;5.154;2023-06-04T04:52:49;5.82;;;4.43;;
67442;SDS011;54311;51.726;5.154;2023-06-04T04:55:15;4.35;;;3.95;;
67442;SDS011;54311;51.726;5.154;2023-06-04T04:57:40;7.85;;;4.28;;
67442;SDS011;54311;51.726;5.154;2023-06-04T05:00:05;5.93;;;4.03;;
67442;SDS011;54311;51.726;5.154;2023-06-04T05:02:34;4.55;;;4.15;;
67442;SDS011;54311;51.726;5.154;2023-06-04T05:05:00;4.30;;;4.10;;
67442;SDS011;54311;51.726;5.154;2023-06-04T05:07:26;6.38;;;4.47;;
67442;SDS011;54311;51.726;5.154;2023-06-04T05:09:51;6.03;;;4.20;;
67442;SDS011;54311;51.726;5.154;2023-06-04T05:12:16;8.38;;;4.40;;
67442;SDS011;54311;51.726;5.154;2023-06-04T05:14:42;4.07;;;3.75;;
67442;SDS011;54311;51.726;5.154;2023-06-04T05:17:07;4.78;;;3.90;;
67442;SDS011;54311;51.726;5.154;2023-06-04T05:19:35;6.30;;;3.95;;
67442;SDS011;54311;51.726;5.154;2023-06-04T05:22:02;4.53;;;4.07;;
67442;SDS011;54311;51.726;5.154;2023-06-04T05:24:27;6.63;;;4.07;;
67442;SDS011;54311;51.726;5.154;2023-06-04T05:26:53;4.22;;;3.92;;
67442;SDS011;54311;51.726;5.154;2023-06-04T05:29:19;6.22;;;4.35;;
67442;SDS011;54311;51.726;5.154;2023-06-04T05:31:45;4.50;;;4.20;;
67442;SDS011;54311;51.726;5.154;2023-06-04T05:34:11;5.00;;;3.83;;
67442;SDS011;54311;51.726;5.154;2023-06-04T05:36:41;4.20;;;3.58;;
67442;SDS011;54311;51.726;5.154;2023-06-04T05:39:07;6.75;;;4.55;;
67442;SDS011;54311;51.726;5.154;2023-06-04T05:41:34;4.38;;;4.05;;
67442;SDS011;54311;51.726;5.154;2023-06-04T05:43:59;4.43;;;4.13;;
67442;SDS011;54311;51.726;5.154;2023-06-04T05:46:24;6.60;;;4.45;;
67442;SDS011;54311;51.726;5.154;2023-06-04T05:48:50;7.20;;;4.10;;
67442;SDS011;54311;51.726;5.154;2023-06-04T05:51:16;4.07;;;3.75;;
67442;SDS011;54311;51.726;5.154;2023-06-04T05:53:41;4.32;;;3.97;;
67442;SDS011;54311;51.726;5.154;2023-06-04T05:56:07;5.25;;;4.28;;
67442;SDS011;54311;51.726;5.154;2023-06-04T05:58:33;4.65;;;4.35;;
67442;SDS011;54311;51.726;5.154;2023-06-04T06:00:59;10.90;;;3.95;;
67442;SDS011;54311;51.726;5.154;2023-06-04T06:03:25;7.68;;;4.25;;
67442;SDS011;54311;51.726;5.154;2023-06-04T06:05:52;7.07;;;4.50;;
67442;SDS011;54311;51.726;5.154;2023-06-04T06:08:19;5.72;;;4.50;;
67442;SDS011;54311;51.726;5.154;2023-06-04T06:10:45;5.60;;;3.97;;
67442;SDS011;54311;51.726;5.154;2023-06-04T06:13:10;5.97;;;4.38;;
67442;SDS011;54311;51.726;5.154;2023-06-04T06:15:35;4.50;;;4.18;;
67442;SDS011;54311;51.726;5.154;2023-06-04T06:18:01;5.90;;;4.20;;
67442;SDS011;54311;51.726;5.154;2023-06-04T06:20:26;4.30;;;3.97;;
67442;SDS011;54311;51.726;5.154;2023-06-04T06:22:52;4.05;;;3.78;;
67442;SDS011;54311;51.726;5.154;2023-06-04T06:25:17;4.78;;;4.38;;
67442;SDS011;54311;51.726;5.154;2023-06-04T06:27:43;12.60;;;5.18;;
67442;SDS011;54311;51.726;5.154;2023-06-04T06:30:10;9.00;;;3.90;;
67442;SDS011;54311;51.726;5.154;2023-06-04T06:32:37;4.47;;;4.00;;
67442;SDS011;54311;51.726;5.154;2023-06-04T06:35:03;3.88;;;3.58;;
67442;SDS011;54311;51.726;5.154;2023-06-04T06:37:28;4.30;;;3.92;;
67442;SDS011;54311;51.726;5.154;2023-06-04T06:39:54;4.68;;;3.83;;
67442;SDS011;54311;51.726;5.154;2023-06-04T06:42:19;7.45;;;3.97;;
67442;SDS011;54311;51.726;5.154;2023-06-04T06:44:45;4.45;;;4.10;;
67442;SDS011;54311;51.726;5.154;2023-06-04T06:47:10;7.63;;;4.47;;
67442;SDS011;54311;51.726;5.154;2023-06-04T06:49:40;4.03;;;3.67;;
67442;SDS011;54311;51.726;5.154;2023-06-04T06:52:05;7.32;;;4.13;;
67442;SDS011;54311;51.726;5.154;2023-06-04T06:54:31;6.63;;;4.13;;
67442;SDS011;54311;51.726;5.154;2023-06-04T06:56:56;7.82;;;4.28;;
67442;SDS011;54311;51.726;5.154;2023-06-04T06:59:23;5.00;;;4.60;;
67442;SDS011;54311;51.726;5.154;2023-06-04T07:01:48;5.28;;;4.45;;
67442;SDS011;54311;51.726;5.154;2023-06-04T07:04:13;8.07;;;4.07;;
67442;SDS011;54311;51.726;5.154;2023-06-04T07:06:39;5.07;;;3.70;;
67442;SDS011;54311;51.726;5.154;2023-06-04T07:09:04;3.83;;;3.50;;
67442;SDS011;54311;51.726;5.154;2023-06-04T07:11:31;5.07;;;3.67;;
67442;SDS011;54311;51.726;5.154;2023-06-04T07:13:56;4.07;;;3.75;;
67442;SDS011;54311;51.726;5.154;2023-06-04T07:16:21;6.70;;;4.10;;
67442;SDS011;54311;51.726;5.154;2023-06-04T07:18:47;3.50;;;3.30;;
67442;SDS011;54311;51.726;5.154;2023-06-04T07:21:14;4.45;;;4.15;;
67442;SDS011;54311;51.726;5.154;2023-06-04T07:23:39;6.53;;;4.43;;
67442;SDS011;54311;51.726;5.154;2023-06-04T07:26:05;7.15;;;4.55;;
67442;SDS011;54311;51.726;5.154;2023-06-04T07:28:30;5.93;;;3.95;;
67442;SDS011;54311;51.726;5.154;2023-06-04T07:30:57;6.15;;;3.50;;
67442;SDS011;54311;51.726;5.154;2023-06-04T07:33:23;4.65;;;3.88;;
67442;SDS011;54311;51.726;5.154;2023-06-04T07:35:49;7.30;;;3.63;;
67442;SDS011;54311;51.726;5.154;2023-06-04T07:38:14;4.53;;;4.15;;
67442;SDS011;54311;51.726;5.154;2023-06-04T07:40:40;4.47;;;4.00;;
67442;SDS011;54311;51.726;5.154;2023-06-04T07:43:05;4.82;;;3.53;;
67442;SDS011;54311;51.726;5.154;2023-06-04T07:45:30;13.60;;;4.47;;
67442;SDS011;54311;51.726;5.154;2023-06-04T07:47:56;3.60;;;3.25;;
67442;SDS011;54311;51.726;5.154;2023-06-04T07:50:21;6.10;;;4.05;;
67442;SDS011;54311;51.726;5.154;2023-06-04T07:52:46;4.97;;;3.83;;
67442;SDS011;54311;51.726;5.154;2023-06-04T07:55:12;4.07;;;3.67;;
67442;SDS011;54311;51.726;5.154;2023-06-04T07:57:37;7.05;;;3.72;;
67442;SDS011;54311;51.726;5.154;2023-06-04T08:00:03;5.38;;;3.70;;
67442;SDS011;54311;51.726;5.154;2023-06-04T08:02:29;8.40;;;3.83;;
67442;SDS011;54311;51.726;5.154;2023-06-04T08:04:55;3.50;;;3.30;;
67442;SDS011;54311;51.726;5.154;2023-06-04T08:07:21;5.55;;;3.28;;
67442;SDS011;54311;51.726;5.154;2023-06-04T08:09:46;6.70;;;3.53;;
67442;SDS011;54311;51.726;5.154;2023-06-04T08:12:12;8.15;;;3.83;;
67442;SDS011;54311;51.726;5.154;2023-06-04T08:14:37;5.00;;;3.78;;
67442;SDS011;54311;51.726;5.154;2023-06-04T08:17:02;4.32;;;3.88;;
67442;SDS011;54311;51.726;5.154;2023-06-04T08:19:28;7.40;;;3.58;;
67442;SDS011;54311;51.726;5.154;2023-06-04T08:21:53;5.95;;;3.40;;
67442;SDS011;54311;51.726;5.154;2023-06-04T08:24:18;4.25;;;3.70;;
67442;SDS011;54311;51.726;5.154;2023-06-04T08:26:44;5.80;;;4.47;;
67442;SDS011;54311;51.726;5.154;2023-06-04T08:29:09;5.35;;;3.45;;
67442;SDS011;54311;51.726;5.154;2023-06-04T08:31:35;3.70;;;3.40;;
67442;SDS011;54311;51.726;5.154;2023-06-04T08:34:00;3.75;;;3.45;;
67442;SDS011;54311;51.726;5.154;2023-06-04T08:36:26;6.65;;;3.20;;
67442;SDS011;54311;51.726;5.154;2023-06-04T08:38:52;5.80;;;2.85;;
67442;SDS011;54311;51.726;5.154;2023-06-04T08:41:21;4.47;;;2.55;;
67442;SDS011;54311;51.726;5.154;2023-06-04T08:44:08;4.60;;;3.08;;
67442;SDS011;54311;51.726;5.154;2023-06-04T08:46:34;7.13;;;3.00;;
67442;SDS011;54311;51.726;5.154;2023-06-04T08:49:05;3.95;;;3.30;;
67442;SDS011;54311;51.726;5.154;2023-06-04T08:51:32;5.78;;;3.10;;
67442;SDS011;54311;51.726;5.154;2023-06-04T08:53:59;5.53;;;2.55;;
67442;SDS011;54311;51.726;5.154;2023-06-04T08:56:25;4.65;;;3.03;;
67442;SDS011;54311;51.726;5.154;2023-06-04T08:58:51;6.05;;;2.85;;
67442;SDS011;54311;51.726;5.154;2023-06-04T09:01:16;6.60;;;2.80;;
67442;SDS011;54311;51.726;5.154;2023-06-04T09:03:42;3.83;;;3.03;;
67442;SDS011;54311;51.726;5.154;2023-06-04T09:06:08;4.95;;;4.43;;
67442;SDS011;54311;51.726;5.154;2023-06-04T09:08:34;5.45;;;3.00;;
67442;SDS011;54311;51.726;5.154;2023-06-04T09:11:01;8.85;;;2.80;;
67442;SDS011;54311;51.726;5.154;2023-06-04T09:13:30;4.00;;;2.40;;
67442;SDS011;54311;51.726;5.154;2023-06-04T09:16:03;7.80;;;2.97;;
67442;SDS011;54311;51.726;5.154;2023-06-04T09:18:30;6.45;;;2.83;;
67442;SDS011;54311;51.726;5.154;2023-06-04T09:21:00;4.90;;;2.65;;
67442;SDS011;54311;51.726;5.154;2023-06-04T09:23:26;3.92;;;2.30;;
67442;SDS011;54311;51.726;5.154;2023-06-04T09:25:52;6.85;;;2.92;;
67442;SDS011;54311;51.726;5.154;2023-06-04T09:28:18;3.80;;;2.65;;
67442;SDS011;54311;51.726;5.154;2023-06-04T09:30:54;2.63;;;2.42;;
67442;SDS011;54311;51.726;5.154;2023-06-04T09:33:20;6.45;;;2.58;;
67442;SDS011;54311;51.726;5.154;2023-06-04T09:35:58;4.03;;;2.45;;
67442;SDS011;54311;51.726;5.154;2023-06-04T09:38:32;5.68;;;2.33;;
67442;SDS011;54311;51.726;5.154;2023-06-04T09:40:59;4.90;;;2.80;;
67442;SDS011;54311;51.726;5.154;2023-06-04T09:43:25;10.75;;;2.63;;
67442;SDS011;54311;51.726;5.154;2023-06-04T09:45:51;2.97;;;2.13;;
67442;SDS011;54311;51.726;5.154;2023-06-04T09:48:20;2.10;;;2.00;;
67442;SDS011;54311;51.726;5.154;2023-06-04T09:50:46;3.20;;;2.20;;
67442;SDS011;54311;51.726;5.154;2023-06-04T09:53:15;1.80;;;1.70;;
67442;SDS011;54311;51.726;5.154;2023-06-04T09:55:42;3.38;;;2.00;;
67442;SDS011;54311;51.726;5.154;2023-06-04T09:58:08;2.35;;;2.15;;
67442;SDS011;54311;51.726;5.154;2023-06-04T10:00:35;2.30;;;2.10;;
67442;SDS011;54311;51.726;5.154;2023-06-04T10:03:01;2.10;;;1.90;;
67442;SDS011;54311;51.726;5.154;2023-06-04T10:05:29;3.00;;;2.10;;
67442;SDS011;54311;51.726;5.154;2023-06-04T10:07:58;2.17;;;2.00;;
67442;SDS011;54311;51.726;5.154;2023-06-04T10:10:30;2.90;;;1.75;;
67442;SDS011;54311;51.726;5.154;2023-06-04T10:13:00;3.08;;;1.90;;
67442;SDS011;54311;51.726;5.154;2023-06-04T10:15:28;1.67;;;1.40;;
67442;SDS011;54311;51.726;5.154;2023-06-04T10:17:54;2.85;;;1.70;;
67442;SDS011;54311;51.726;5.154;2023-06-04T10:20:20;1.73;;;1.63;;
67442;SDS011;54311;51.726;5.154;2023-06-04T10:22:46;6.70;;;2.20;;
67442;SDS011;54311;51.726;5.154;2023-06-04T10:25:12;6.38;;;1.70;;
67442;SDS011;54311;51.726;5.154;2023-06-04T10:27:39;3.05;;;1.58;;
67442;SDS011;54311;51.726;5.154;2023-06-04T10:30:05;2.80;;;1.65;;
67442;SDS011;54311;51.726;5.154;2023-06-04T10:32:30;4.55;;;1.90;;
67442;SDS011;54311;51.726;5.154;2023-06-04T10:34:56;2.75;;;1.70;;
67442;SDS011;54311;51.726;5.154;2023-06-04T10:37:25;4.32;;;1.73;;
67442;SDS011;54311;51.726;5.154;2023-06-04T10:39:52;1.88;;;1.63;;
67442;SDS011;54311;51.726;5.154;2023-06-04T10:42:18;4.13;;;1.90;;
67442;SDS011;54311;51.726;5.154;2023-06-04T10:44:44;1.63;;;1.50;;
67442;SDS011;54311;51.726;5.154;2023-06-04T10:47:21;3.22;;;1.70;;
67442;SDS011;54311;51.726;5.154;2023-06-04T10:49:47;2.50;;;1.60;;
67442;SDS011;54311;51.726;5.154;2023-06-04T10:52:14;1.60;;;1.50;;
67442;SDS011;54311;51.726;5.154;2023-06-04T10:54:40;3.10;;;1.65;;
67442;SDS011;54311;51.726;5.154;2023-06-04T10:57:10;2.10;;;1.90;;
67442;SDS011;54311;51.726;5.154;2023-06-04T10:59:36;2.45;;;1.45;;
67442;SDS011;54311;51.726;5.154;2023-06-04T11:02:08;3.42;;;2.30;;
67442;SDS011;54311;51.726;5.154;2023-06-04T11:04:34;4.53;;;2.03;;
67442;SDS011;54311;51.726;5.154;2023-06-04T11:09:28;2.80;;;1.50;;
67442;SDS011;54311;51.726;5.154;2023-06-04T11:11:58;3.53;;;2.00;;
67442;SDS011;54311;51.726;5.154;2023-06-04T11:14:24;1.80;;;1.70;;
67442;SDS011;54311;51.726;5.154;2023-06-04T11:16:49;1.98;;;1.45;;
67442;SDS011;54311;51.726;5.154;2023-06-04T11:19:14;2.03;;;1.77;;
67442;SDS011;54311;51.726;5.154;2023-06-04T11:21:40;2.97;;;1.50;;
67442;SDS011;54311;51.726;5.154;2023-06-04T11:24:06;2.10;;;1.85;;
67442;SDS011;54311;51.726;5.154;2023-06-04T11:28:58;3.30;;;1.85;;
67442;SDS011;54311;51.726;5.154;2023-06-04T11:31:23;1.90;;;1.33;;
67442;SDS011;54311;51.726;5.154;2023-06-04T11:33:48;3.13;;;1.70;;
67442;SDS011;54311;51.726;5.154;2023-06-04T11:36:27;3.25;;;1.73;;
67442;SDS011;54311;51.726;5.154;2023-06-04T11:38:54;3.35;;;1.50;;
67442;SDS011;54311;51.726;5.154;2023-06-04T11:41:21;1.90;;;1.80;;
67442;SDS011;54311;51.726;5.154;2023-06-04T11:43:49;1.98;;;1.77;;
67442;SDS011;54311;51.726;5.154;2023-06-04T11:46:15;2.33;;;1.73;;
67442;SDS011;54311;51.726;5.154;2023-06-04T11:48:40;2.97;;;1.85;;
67442;SDS011;54311;51.726;5.154;2023-06-04T11:51:06;5.72;;;1.92;;
67442;SDS011;54311;51.726;5.154;2023-06-04T11:53:33;3.58;;;1.70;;
67442;SDS011;54311;51.726;5.154;2023-06-04T11:55:59;5.63;;;1.95;;
67442;SDS011;54311;51.726;5.154;2023-06-04T11:58:25;3.60;;;1.60;;
67442;SDS011;54311;51.726;5.154;2023-06-04T12:00:50;2.25;;;1.73;;
67442;SDS011;54311;51.726;5.154;2023-06-04T12:03:16;6.38;;;2.42;;
67442;SDS011;54311;51.726;5.154;2023-06-04T12:05:41;4.75;;;2.35;;
67442;SDS011;54311;51.726;5.154;2023-06-04T12:08:07;3.95;;;2.13;;
67442;SDS011;54311;51.726;5.154;2023-06-04T12:10:38;2.28;;;2.00;;
67442;SDS011;54311;51.726;5.154;2023-06-04T12:13:04;3.83;;;2.08;;
67442;SDS011;54311;51.726;5.154;2023-06-04T12:15:29;1.90;;;1.70;;
67442;SDS011;54311;51.726;5.154;2023-06-04T12:17:55;5.20;;;2.00;;
67442;SDS011;54311;51.726;5.154;2023-06-04T12:20:39;2.67;;;1.95;;
67442;SDS011;54311;51.726;5.154;2023-06-04T12:23:06;3.00;;;1.85;;
67442;SDS011;54311;51.726;5.154;2023-06-04T12:25:32;4.40;;;1.73;;
67442;SDS011;54311;51.726;5.154;2023-06-04T12:27:59;2.22;;;2.00;;
67442;SDS011;54311;51.726;5.154;2023-06-04T12:30:37;1.95;;;1.60;;
67442;SDS011;54311;51.726;5.154;2023-06-04T12:33:03;2.72;;;1.55;;
67442;SDS011;54311;51.726;5.154;2023-06-04T12:35:28;1.65;;;1.55;;
67442;SDS011;54311;51.726;5.154;2023-06-04T12:37:53;1.70;;;1.60;;
67442;SDS011;54311;51.726;5.154;2023-06-04T12:40:19;2.35;;;1.55;;
67442;SDS011;54311;51.726;5.154;2023-06-04T12:42:44;1.70;;;1.60;;
67442;SDS011;54311;51.726;5.154;2023-06-04T12:45:09;3.75;;;1.70;;
67442;SDS011;54311;51.726;5.154;2023-06-04T12:47:36;3.08;;;2.00;;
67442;SDS011;54311;51.726;5.154;2023-06-04T12:50:01;1.90;;;1.80;;
67442;SDS011;54311;51.726;5.154;2023-06-04T12:52:28;4.43;;;2.33;;
67442;SDS011;54311;51.726;5.154;2023-06-04T12:54:53;1.70;;;1.60;;
67442;SDS011;54311;51.726;5.154;2023-06-04T12:57:18;4.60;;;1.30;;
67442;SDS011;54311;51.726;5.154;2023-06-04T12:59:43;3.65;;;1.70;;
67442;SDS011;54311;51.726;5.154;2023-06-04T13:02:09;2.92;;;1.70;;
67442;SDS011;54311;51.726;5.154;2023-06-04T13:04:34;1.90;;;1.75;;
67442;SDS011;54311;51.726;5.154;2023-06-04T13:07:00;2.08;;;1.88;;
67442;SDS011;54311;51.726;5.154;2023-06-04T13:09:25;5.03;;;1.80;;
67442;SDS011;54311;51.726;5.154;2023-06-04T13:11:53;1.80;;;1.70;;
67442;SDS011;54311;51.726;5.154;2023-06-04T13:14:18;2.75;;;1.92;;
67442;SDS011;54311;51.726;5.154;2023-06-04T13:16:43;1.80;;;1.70;;
67442;SDS011;54311;51.726;5.154;2023-06-04T13:19:10;2.15;;;1.95;;
67442;SDS011;54311;51.726;5.154;2023-06-04T13:21:36;2.38;;;2.00;;
67442;SDS011;54311;51.726;5.154;2023-06-04T13:24:01;2.60;;;2.40;;
67442;SDS011;54311;51.726;5.154;2023-06-04T13:26:27;3.10;;;2.00;;
67442;SDS011;54311;51.726;5.154;2023-06-04T13:28:52;5.05;;;1.83;;
67442;SDS011;54311;51.726;5.154;2023-06-04T13:31:17;8.20;;;1.80;;
67442;SDS011;54311;51.726;5.154;2023-06-04T13:33:43;1.90;;;1.80;;
67442;SDS011;54311;51.726;5.154;2023-06-04T13:36:08;1.58;;;1.48;;
67442;SDS011;54311;51.726;5.154;2023-06-04T13:38:34;1.70;;;1.60;;
67442;SDS011;54311;51.726;5.154;2023-06-04T13:40:59;2.40;;;2.20;;
67442;SDS011;54311;51.726;5.154;2023-06-04T13:43:24;2.20;;;1.95;;
67442;SDS011;54311;51.726;5.154;2023-06-04T13:45:50;5.90;;;2.15;;
67442;SDS011;54311;51.726;5.154;2023-06-04T13:48:15;2.67;;;2.03;;
67442;SDS011;54311;51.726;5.154;2023-06-04T13:50:41;2.05;;;1.80;;
67442;SDS011;54311;51.726;5.154;2023-06-04T13:53:10;3.92;;;1.95;;
67442;SDS011;54311;51.726;5.154;2023-06-04T13:55:35;4.70;;;2.20;;
67442;SDS011;54311;51.726;5.154;2023-06-04T13:58:01;2.17;;;2.08;;
67442;SDS011;54311;51.726;5.154;2023-06-04T14:00:26;1.90;;;1.80;;
67442;SDS011;54311;51.726;5.154;2023-06-04T14:02:52;3.38;;;2.33;;
67442;SDS011;54311;51.726;5.154;2023-06-04T14:05:19;3.53;;;2.20;;
67442;SDS011;54311;51.726;5.154;2023-06-04T14:07:45;2.22;;;2.05;;
67442;SDS011;54311;51.726;5.154;2023-06-04T14:10:11;2.55;;;1.95;;
67442;SDS011;54311;51.726;5.154;2023-06-04T14:12:39;2.13;;;1.65;;
67442;SDS011;54311;51.726;5.154;2023-06-04T14:15:09;4.25;;;2.17;;
67442;SDS011;54311;51.726;5.154;2023-06-04T14:17:35;2.50;;;2.10;;
67442;SDS011;54311;51.726;5.154;2023-06-04T14:20:02;2.45;;;2.10;;
67442;SDS011;54311;51.726;5.154;2023-06-04T14:22:32;2.40;;;2.20;;
67442;SDS011;54311;51.726;5.154;2023-06-04T14:24:58;3.15;;;2.20;;
67442;SDS011;54311;51.726;5.154;2023-06-04T14:27:24;2.00;;;1.90;;
67442;SDS011;54311;51.726;5.154;2023-06-04T14:29:51;2.85;;;2.17;;
67442;SDS011;54311;51.726;5.154;2023-06-04T14:32:16;4.13;;;2.05;;
67442;SDS011;54311;51.726;5.154;2023-06-04T14:34:41;4.25;;;2.20;;
67442;SDS011;54311;51.726;5.154;2023-06-04T14:37:07;6.65;;;2.20;;
67442;SDS011;54311;51.726;5.154;2023-06-04T14:39:32;2.70;;;1.73;;
67442;SDS011;54311;51.726;5.154;2023-06-04T14:41:57;3.35;;;2.33;;
67442;SDS011;54311;51.726;5.154;2023-06-04T14:44:23;5.00;;;2.20;;
67442;SDS011;54311;51.726;5.154;2023-06-04T14:46:48;3.03;;;2.10;;
67442;SDS011;54311;51.726;5.154;2023-06-04T14:49:15;2.63;;;2.15;;
67442;SDS011;54311;51.726;5.154;2023-06-04T14:51:40;4.07;;;2.28;;